sensor_id;sensor_type;location;lat;lon;timestamp;pressure;altitude;pressure_sealevel;temperature;humidity
77537;BME280;66665;51.656;16.106;2023-01-16T00:01:48;100481.80;;;6.43;58.55
77537;BME280;66665;51.656;16.106;2023-01-16T00:05:01;100471.33;;;6.40;58.12
77537;BME280;66665;51.656;16.106;2023-01-16T00:08:03;100467.73;;;6.41;58.86
77537;BME280;66665;51.656;16.106;2023-01-16T00:11:05;100466.95;;;6.39;58.45
77537;BME280;66665;51.656;16.106;2023-01-16T00:14:07;100464.28;;;6.39;58.90
77537;BME280;66665;51.656;16.106;2023-01-16T00:17:08;100462.56;;;6.38;58.74
77537;BME280;66665;51.656;16.106;2023-01-16T00:20:11;100456.67;;;6.33;59.08
77537;BME280;66665;51.656;16.106;2023-01-16T00:23:13;100459.15;;;6.36;58.79
77537;BME280;66665;51.656;16.106;2023-01-16T00:26:18;100463.80;;;6.33;58.56
77537;BME280;66665;51.656;16.106;2023-01-16T00:29:20;100461.03;;;6.34;58.84
77537;BME280;66665;51.656;16.106;2023-01-16T00:32:22;100463.80;;;6.33;58.75
77537;BME280;66665;51.656;16.106;2023-01-16T00:35:24;100457.43;;;6.35;58.96
77537;BME280;66665;51.656;16.106;2023-01-16T00:38:27;100456.67;;;6.33;58.97
77537;BME280;66665;51.656;16.106;2023-01-16T00:41:38;100445.18;;;6.33;58.38
77537;BME280;66665;51.656;16.106;2023-01-16T00:44:40;100453.04;;;6.34;58.99
77537;BME280;66665;51.656;16.106;2023-01-16T00:47:42;100441.64;;;6.32;58.77
77537;BME280;66665;51.656;16.106;2023-01-16T00:50:44;100450.38;;;6.34;58.99
77537;BME280;66665;51.656;16.106;2023-01-16T00:53:46;100447.72;;;6.34;58.95
77537;BME280;66665;51.656;16.106;2023-01-16T00:56:48;100448.50;;;6.36;59.01
77537;BME280;66665;51.656;16.106;2023-01-16T00:59:50;100442.40;;;6.34;58.97
77537;BME280;66665;51.656;16.106;2023-01-16T01:02:55;100442.40;;;6.34;58.41
77537;BME280;66665;51.656;16.106;2023-01-16T01:05:57;100445.05;;;6.34;58.99
77537;BME280;66665;51.656;16.106;2023-01-16T01:08:59;100443.38;;;6.33;58.83
77537;BME280;66665;51.656;16.106;2023-01-16T01:12:01;100424.88;;;6.16;58.88
77537;BME280;66665;51.656;16.106;2023-01-16T01:15:03;100433.06;;;6.27;58.94
77537;BME280;66665;51.656;16.106;2023-01-16T01:18:15;100433.26;;;6.24;58.56
77537;BME280;66665;51.656;16.106;2023-01-16T01:21:17;100447.32;;;6.26;59.04
77537;BME280;66665;51.656;16.106;2023-01-16T01:24:19;100433.26;;;6.24;58.95
77537;BME280;66665;51.656;16.106;2023-01-16T01:27:21;100442.85;;;6.27;59.09
77537;BME280;66665;51.656;16.106;2023-01-16T01:30:22;100431.54;;;6.23;59.00
77537;BME280;66665;51.656;16.106;2023-01-16T01:33:24;100423.48;;;6.25;59.12
77537;BME280;66665;51.656;16.106;2023-01-16T01:36:26;100405.84;;;6.08;59.09
77537;BME280;66665;51.656;16.106;2023-01-16T01:39:31;100427.16;;;6.22;58.65
77537;BME280;66665;51.656;16.106;2023-01-16T01:42:38;100420.03;;;6.23;59.14
77537;BME280;66665;51.656;16.106;2023-01-16T01:45:54;100427.27;;;6.21;59.13
77537;BME280;66665;51.656;16.106;2023-01-16T01:49:07;100430.95;;;6.18;58.82
77537;BME280;66665;51.656;16.106;2023-01-16T01:52:11;100426.48;;;6.19;59.23
77537;BME280;66665;51.656;16.106;2023-01-16T01:55:15;100422.21;;;6.16;59.22
77537;BME280;66665;51.656;16.106;2023-01-16T01:58:26;100413.56;;;6.13;59.03
77537;BME280;66665;51.656;16.106;2023-01-16T02:01:30;100407.37;;;6.12;59.27
77537;BME280;66665;51.656;16.106;2023-01-16T02:04:36;100410.20;;;6.09;59.26
77537;BME280;66665;51.656;16.106;2023-01-16T02:07:52;100404.13;;;6.07;59.17
77537;BME280;66665;51.656;16.106;2023-01-16T02:14:10;100400.67;;;6.05;59.46
77537;BME280;66665;51.656;16.106;2023-01-16T02:17:19;100392.89;;;6.02;59.40
77537;BME280;66665;51.656;16.106;2023-01-16T02:20:42;100391.09;;;6.02;59.53
77537;BME280;66665;51.656;16.106;2023-01-16T02:27:09;100384.91;;;6.02;59.57
77537;BME280;66665;51.656;16.106;2023-01-16T02:40:16;100396.33;;;6.04;59.67
77537;BME280;66665;51.656;16.106;2023-01-16T02:47:07;100395.88;;;6.12;59.67
77537;BME280;66665;51.656;16.106;2023-01-16T02:53:28;100388.83;;;6.11;59.58
77537;BME280;66665;51.656;16.106;2023-01-16T02:56:39;100394.92;;;6.13;59.63
77537;BME280;66665;51.656;16.106;2023-01-16T02:59:36;100390.45;;;6.13;59.61
77537;BME280;66665;51.656;16.106;2023-01-16T03:02:42;100387.22;;;6.08;59.32
77537;BME280;66665;51.656;16.106;2023-01-16T03:05:48;100383.51;;;6.11;59.57
77537;BME280;66665;51.656;16.106;2023-01-16T03:09:06;100385.42;;;6.09;59.45
77537;BME280;66665;51.656;16.106;2023-01-16T03:12:21;100374.07;;;6.05;58.95
77537;BME280;66665;51.656;16.106;2023-01-16T03:16:20;100376.73;;;6.05;59.42
77537;BME280;66665;51.656;16.106;2023-01-16T03:28:42;100373.86;;;5.94;59.47
77537;BME280;66665;51.656;16.106;2023-01-16T03:35:01;100366.26;;;5.88;59.49
77537;BME280;66665;51.656;16.106;2023-01-16T03:38:07;100364.54;;;5.87;59.60
77537;BME280;66665;51.656;16.106;2023-01-16T03:41:15;100359.38;;;5.84;59.64
77537;BME280;66665;51.656;16.106;2023-01-16T03:44:24;100355.93;;;5.82;59.57
77537;BME280;66665;51.656;16.106;2023-01-16T03:50:47;100352.60;;;5.78;59.75
77537;BME280;66665;51.656;16.106;2023-01-16T03:53:59;100348.29;;;5.76;59.87
77537;BME280;66665;51.656;16.106;2023-01-16T04:00:17;100341.17;;;5.76;59.91
77537;BME280;66665;51.656;16.106;2023-01-16T04:03:28;100339.49;;;5.75;59.92
77537;BME280;66665;51.656;16.106;2023-01-16T04:06:35;100326.94;;;5.77;59.92
77537;BME280;66665;51.656;16.106;2023-01-16T04:12:57;100313.72;;;5.76;59.99
77537;BME280;66665;51.656;16.106;2023-01-16T04:16:03;100328.55;;;5.80;59.95
77537;BME280;66665;51.656;16.106;2023-01-16T04:19:11;100320.58;;;5.80;59.96
77537;BME280;66665;51.656;16.106;2023-01-16T04:22:21;100316.23;;;5.79;59.98
77537;BME280;66665;51.656;16.106;2023-01-16T04:25:23;100304.80;;;5.77;60.09
77537;BME280;66665;51.656;16.106;2023-01-16T04:28:26;100306.52;;;5.78;60.04
77537;BME280;66665;51.656;16.106;2023-01-16T04:31:28;100308.24;;;5.79;60.00
77537;BME280;66665;51.656;16.106;2023-01-16T04:34:30;100304.61;;;5.80;60.06
77537;BME280;66665;51.656;16.106;2023-01-16T04:37:35;100294.17;;;5.77;60.17
77537;BME280;66665;51.656;16.106;2023-01-16T04:40:37;100285.25;;;5.78;60.08
77537;BME280;66665;51.656;16.106;2023-01-16T04:43:39;100279.84;;;5.79;60.13
77537;BME280;66665;51.656;16.106;2023-01-16T04:46:41;100272.53;;;5.83;60.05
77537;BME280;66665;51.656;16.106;2023-01-16T04:49:43;100268.16;;;5.82;60.07
77537;BME280;66665;51.656;16.106;2023-01-16T04:52:45;100261.70;;;5.86;60.01
77537;BME280;66665;51.656;16.106;2023-01-16T04:55:47;100263.45;;;5.87;60.02
77537;BME280;66665;51.656;16.106;2023-01-16T04:58:52;100259.00;;;5.87;59.91
77537;BME280;66665;51.656;16.106;2023-01-16T05:01:54;100263.19;;;5.91;59.96
77537;BME280;66665;51.656;16.106;2023-01-16T05:04:56;100263.07;;;5.93;59.92
77537;BME280;66665;51.656;16.106;2023-01-16T05:07:58;100253.95;;;5.97;59.90
77537;BME280;66665;51.656;16.106;2023-01-16T05:11:11;100246.95;;;5.96;59.87
77537;BME280;66665;51.656;16.106;2023-01-16T05:14:16;100242.56;;;5.95;59.71
77537;BME280;66665;51.656;16.106;2023-01-16T05:17:18;100240.57;;;5.98;59.81
77537;BME280;66665;51.656;16.106;2023-01-16T05:20:26;100232.66;;;5.97;59.78
77537;BME280;66665;51.656;16.106;2023-01-16T05:23:28;100227.26;;;5.98;59.74
77537;BME280;66665;51.656;16.106;2023-01-16T05:26:30;100222.88;;;5.97;59.78
77537;BME280;66665;51.656;16.106;2023-01-16T05:29:37;100224.68;;;5.97;59.60
77537;BME280;66665;51.656;16.106;2023-01-16T05:32:38;100223.74;;;5.98;59.78
77537;BME280;66665;51.656;16.106;2023-01-16T05:35:40;100214.91;;;5.97;59.72
77537;BME280;66665;51.656;16.106;2023-01-16T05:38:42;100211.22;;;6.00;59.76
77537;BME280;66665;51.656;16.106;2023-01-16T05:41:44;100214.82;;;5.99;59.79
77537;BME280;66665;51.656;16.106;2023-01-16T05:44:47;100216.53;;;6.00;59.78
77537;BME280;66665;51.656;16.106;2023-01-16T05:47:49;100213.10;;;5.98;59.80
77537;BME280;66665;51.656;16.106;2023-01-16T05:50:54;100213.10;;;5.98;59.61
77537;BME280;66665;51.656;16.106;2023-01-16T05:53:56;100211.22;;;6.00;59.80
77537;BME280;66665;51.656;16.106;2023-01-16T05:56:57;100205.90;;;6.00;59.76
77537;BME280;66665;51.656;16.106;2023-01-16T05:59:59;100200.46;;;6.01;59.80
77537;BME280;66665;51.656;16.106;2023-01-16T06:03:01;100205.90;;;6.00;59.78
77537;BME280;66665;51.656;16.106;2023-01-16T06:06:04;100207.58;;;6.01;59.79
77537;BME280;66665;51.656;16.106;2023-01-16T06:09:06;100208.63;;;5.98;59.81
77537;BME280;66665;51.656;16.106;2023-01-16T06:12:14;100209.70;;;5.96;59.65
77537;BME280;66665;51.656;16.106;2023-01-16T06:15:16;100202.46;;;5.98;59.92
77537;BME280;66665;51.656;16.106;2023-01-16T06:18:18;100199.14;;;5.94;59.85
77537;BME280;66665;51.656;16.106;2023-01-16T06:21:20;100189.36;;;5.95;59.82
77537;BME280;66665;51.656;16.106;2023-01-16T06:24:22;100193.91;;;5.93;59.83
77537;BME280;66665;51.656;16.106;2023-01-16T06:27:32;100184.31;;;5.90;59.70
77537;BME280;66665;51.656;16.106;2023-01-16T06:30:34;100179.09;;;5.89;59.83
77537;BME280;66665;51.656;16.106;2023-01-16T06:33:36;100176.59;;;5.86;59.81
77537;BME280;66665;51.656;16.106;2023-01-16T06:36:37;100166.64;;;5.89;59.83
77537;BME280;66665;51.656;16.106;2023-01-16T06:39:40;100158.58;;;5.91;59.77
77537;BME280;66665;51.656;16.106;2023-01-16T06:42:41;100159.23;;;5.94;59.74
77537;BME280;66665;51.656;16.106;2023-01-16T06:45:43;100157.31;;;5.96;59.72
77537;BME280;66665;51.656;16.106;2023-01-16T06:48:48;100150.11;;;5.98;59.26
77537;BME280;66665;51.656;16.106;2023-01-16T06:51:50;100103.54;;;5.77;59.58
77537;BME280;66665;51.656;16.106;2023-01-16T06:54:52;100150.77;;;6.02;59.42
77537;BME280;66665;51.656;16.106;2023-01-16T06:57:54;100148.77;;;6.06;59.52
77537;BME280;66665;51.656;16.106;2023-01-16T07:00:56;100145.08;;;6.08;59.41
77537;BME280;66665;51.656;16.106;2023-01-16T07:03:57;100159.70;;;6.15;59.40
77537;BME280;66665;51.656;16.106;2023-01-16T07:06:59;100150.77;;;6.16;59.24
77537;BME280;66665;51.656;16.106;2023-01-16T07:10:05;100153.30;;;6.18;58.77
77537;BME280;66665;51.656;16.106;2023-01-16T07:13:07;100145.89;;;6.23;59.21
77537;BME280;66665;51.656;16.106;2023-01-16T07:16:12;100149.21;;;6.26;58.90
77537;BME280;66665;51.656;16.106;2023-01-16T07:19:31;100148.26;;;6.27;58.17
77537;BME280;66665;51.656;16.106;2023-01-16T07:22:45;100146.16;;;6.32;58.99
77537;BME280;66665;51.656;16.106;2023-01-16T07:25:48;100146.05;;;6.34;58.83
77537;BME280;66665;51.656;16.106;2023-01-16T07:28:58;100142.23;;;6.38;58.08
77537;BME280;66665;51.656;16.106;2023-01-16T07:33:33;100134.16;;;6.39;58.76
77537;BME280;66665;51.656;16.106;2023-01-16T07:36:35;100135.11;;;6.38;58.28
77537;BME280;66665;51.656;16.106;2023-01-16T07:39:37;100131.41;;;6.41;58.69
77537;BME280;66665;51.656;16.106;2023-01-16T07:42:39;100132.44;;;6.38;58.50
77537;BME280;66665;51.656;16.106;2023-01-16T07:45:41;100136.09;;;6.37;58.65
77537;BME280;66665;51.656;16.106;2023-01-16T07:48:46;100125.52;;;6.36;58.57
77537;BME280;66665;51.656;16.106;2023-01-16T07:51:51;100132.66;;;6.35;57.83
77537;BME280;66665;51.656;16.106;2023-01-16T07:54:53;100127.12;;;6.38;58.62
77537;BME280;66665;51.656;16.106;2023-01-16T07:57:55;100118.40;;;6.36;58.26
77537;BME280;66665;51.656;16.106;2023-01-16T08:00:57;100102.42;;;6.36;58.62
77537;BME280;66665;51.656;16.106;2023-01-16T08:03:59;100113.08;;;6.36;58.45
77537;BME280;66665;51.656;16.106;2023-01-16T08:07:12;100115.83;;;6.35;57.61
77537;BME280;66665;51.656;16.106;2023-01-16T08:10:14;100105.09;;;6.36;58.47
77537;BME280;66665;51.656;16.106;2023-01-16T08:13:16;100102.64;;;6.33;58.42
77537;BME280;66665;51.656;16.106;2023-01-16T08:16:17;100088.99;;;6.38;58.55
77537;BME280;66665;51.656;16.106;2023-01-16T08:19:19;100090.41;;;6.43;58.52
77537;BME280;66665;51.656;16.106;2023-01-16T08:22:21;100090.55;;;6.55;58.46
77537;BME280;66665;51.656;16.106;2023-01-16T08:25:24;100086.34;;;6.65;58.28
77537;BME280;66665;51.656;16.106;2023-01-16T08:28:28;100084.78;;;6.75;57.31
77537;BME280;66665;51.656;16.106;2023-01-16T08:31:31;100084.68;;;6.89;57.96
77537;BME280;66665;51.656;16.106;2023-01-16T08:34:33;100078.74;;;6.98;57.31
77537;BME280;66665;51.656;16.106;2023-01-16T08:37:35;100075.65;;;7.04;57.49
77537;BME280;66665;51.656;16.106;2023-01-16T08:40:37;100065.75;;;7.06;57.43
77537;BME280;66665;51.656;16.106;2023-01-16T08:43:49;100068.65;;;7.16;56.26
77537;BME280;66665;51.656;16.106;2023-01-16T08:47:14;100067.16;;;7.24;57.31
77537;BME280;66665;51.656;16.106;2023-01-16T08:50:31;100057.33;;;7.25;57.02
77537;BME280;66665;51.656;16.106;2023-01-16T08:53:44;100054.78;;;7.23;56.93
77537;BME280;66665;51.656;16.106;2023-01-16T08:56:46;100047.42;;;7.27;57.27
77537;BME280;66665;51.656;16.106;2023-01-16T08:59:48;100052.75;;;7.27;56.99
77537;BME280;66665;51.656;16.106;2023-01-16T09:02:50;100046.34;;;7.29;57.31
77537;BME280;66665;51.656;16.106;2023-01-16T09:05:53;100037.39;;;7.30;57.20
77537;BME280;66665;51.656;16.106;2023-01-16T09:08:57;100026.72;;;7.30;56.42
77537;BME280;66665;51.656;16.106;2023-01-16T09:11:59;100013.17;;;7.33;57.25
77537;BME280;66665;51.656;16.106;2023-01-16T09:15:13;100011.17;;;7.37;57.17
77537;BME280;66665;51.656;16.106;2023-01-16T09:18:25;100012.52;;;7.42;56.26
77537;BME280;66665;51.656;16.106;2023-01-16T09:21:26;100010.70;;;7.56;57.14
77537;BME280;66665;51.656;16.106;2023-01-16T09:24:28;100008.11;;;7.67;56.53
77537;BME280;66665;51.656;16.106;2023-01-16T09:27:30;99993.88;;;7.79;56.80
77537;BME280;66665;51.656;16.106;2023-01-16T09:30:32;99987.83;;;7.77;56.42
77537;BME280;66665;51.656;16.106;2023-01-16T09:33:33;99989.30;;;7.81;56.93
77537;BME280;66665;51.656;16.106;2023-01-16T09:36:35;99984.20;;;7.78;56.79
77537;BME280;66665;51.656;16.106;2023-01-16T09:39:40;99985.68;;;7.82;56.67
77537;BME280;66665;51.656;16.106;2023-01-16T09:49:26;99955.29;;;7.96;56.66
77537;BME280;66665;51.656;16.106;2023-01-16T09:52:34;99946.22;;;7.98;57.10
77537;BME280;66665;51.656;16.106;2023-01-16T09:55:51;99936.17;;;8.02;57.37
77537;BME280;66665;51.656;16.106;2023-01-16T10:02:29;99924.47;;;8.15;55.95
77537;BME280;66665;51.656;16.106;2023-01-16T10:12:10;99899.91;;;8.34;56.30
77537;BME280;66665;51.656;16.106;2023-01-16T10:18:37;99884.45;;;8.26;56.13
77537;BME280;66665;51.656;16.106;2023-01-16T10:31:39;99855.79;;;8.28;56.45
77537;BME280;66665;51.656;16.106;2023-01-16T10:34:53;99841.83;;;8.25;55.35
77537;BME280;66665;51.656;16.106;2023-01-16T10:38:08;99834.44;;;8.28;55.59
77537;BME280;66665;51.656;16.106;2023-01-16T10:44:35;99818.55;;;8.27;56.29
77537;BME280;66665;51.656;16.106;2023-01-16T10:47:51;99827.63;;;8.24;55.84
77537;BME280;66665;51.656;16.106;2023-01-16T10:51:15;99827.09;;;8.32;55.56
77537;BME280;66665;51.656;16.106;2023-01-16T10:54:17;99816.88;;;8.37;56.16
77537;BME280;66665;51.656;16.106;2023-01-16T10:57:20;99811.33;;;8.40;55.51
77537;BME280;66665;51.656;16.106;2023-01-16T11:00:27;99801.10;;;8.45;55.88
77537;BME280;66665;51.656;16.106;2023-01-16T11:03:40;99794.20;;;8.54;55.90
77537;BME280;66665;51.656;16.106;2023-01-16T11:06:42;99785.46;;;8.63;55.50
77537;BME280;66665;51.656;16.106;2023-01-16T11:09:47;99770.63;;;8.70;55.50
77537;BME280;66665;51.656;16.106;2023-01-16T11:12:49;99765.92;;;8.73;55.35
77537;BME280;66665;51.656;16.106;2023-01-16T11:19:42;99753.63;;;8.71;53.84
77537;BME280;66665;51.656;16.106;2023-01-16T11:22:50;99751.34;;;8.77;54.96
77537;BME280;66665;51.656;16.106;2023-01-16T11:25:58;99738.21;;;8.86;55.18
77537;BME280;66665;51.656;16.106;2023-01-16T11:29:03;99727.52;;;8.86;53.59
77537;BME280;66665;51.656;16.106;2023-01-16T11:32:08;99717.90;;;8.94;54.80
77537;BME280;66665;51.656;16.106;2023-01-16T11:35:13;99711.55;;;8.95;54.48
77537;BME280;66665;51.656;16.106;2023-01-16T11:38:17;99701.34;;;9.00;54.52
77537;BME280;66665;51.656;16.106;2023-01-16T11:41:24;99694.77;;;9.04;54.40
77537;BME280;66665;51.656;16.106;2023-01-16T11:44:32;99676.58;;;8.98;53.72
77537;BME280;66665;51.656;16.106;2023-01-16T11:48:00;99675.50;;;9.21;53.96
77537;BME280;66665;51.656;16.106;2023-01-16T11:51:16;99672.92;;;9.31;54.35
77537;BME280;66665;51.656;16.106;2023-01-16T11:54:24;99672.08;;;9.31;53.46
77537;BME280;66665;51.656;16.106;2023-01-16T11:57:41;99662.34;;;9.30;52.78
77537;BME280;66665;51.656;16.106;2023-01-16T12:00:53;99650.88;;;9.39;54.19
77537;BME280;66665;51.656;16.106;2023-01-16T12:04:06;99644.55;;;9.40;52.77
77537;BME280;66665;51.656;16.106;2023-01-16T12:07:19;99651.77;;;9.49;52.56
77537;BME280;66665;51.656;16.106;2023-01-16T12:17:18;99628.16;;;9.54;51.90
77537;BME280;66665;51.656;16.106;2023-01-16T12:23:47;99609.77;;;9.60;52.41
77537;BME280;66665;51.656;16.106;2023-01-16T12:36:54;99573.86;;;9.63;51.04
77537;BME280;66665;51.656;16.106;2023-01-16T12:40:11;99572.55;;;9.57;51.28
77537;BME280;66665;51.656;16.106;2023-01-16T12:46:43;99552.45;;;9.63;49.15
77537;BME280;66665;51.656;16.106;2023-01-16T12:49:58;99543.74;;;9.70;51.42
77537;BME280;66665;51.656;16.106;2023-01-16T13:03:01;99527.91;;;9.58;50.80
77537;BME280;66665;51.656;16.106;2023-01-16T13:06:10;99522.96;;;9.53;50.67
77537;BME280;66665;51.656;16.106;2023-01-16T13:09:38;99517.31;;;9.47;49.63
77537;BME280;66665;51.656;16.106;2023-01-16T13:12:29;99514.07;;;9.43;51.35
77537;BME280;66665;51.656;16.106;2023-01-16T13:19:15;99503.42;;;9.32;50.64
77537;BME280;66665;51.656;16.106;2023-01-16T13:22:33;99492.15;;;9.28;50.30
77537;BME280;66665;51.656;16.106;2023-01-16T13:25:38;99497.45;;;9.40;51.51
77537;BME280;66665;51.656;16.106;2023-01-16T13:31:58;99479.52;;;9.31;50.06
77537;BME280;66665;51.656;16.106;2023-01-16T13:41:40;99468.88;;;9.19;50.71
77537;BME280;66665;51.656;16.106;2023-01-16T13:44:50;99459.89;;;9.20;51.77
77537;BME280;66665;51.656;16.106;2023-01-16T13:48:10;99452.66;;;9.11;51.75
77537;BME280;66665;51.656;16.106;2023-01-16T13:51:15;99450.80;;;9.02;51.36
77537;BME280;66665;51.656;16.106;2023-01-16T13:54:27;99451.05;;;8.99;51.99
77537;BME280;66665;51.656;16.106;2023-01-16T13:57:32;99443.97;;;8.89;51.98
77537;BME280;66665;51.656;16.106;2023-01-16T14:00:38;99433.22;;;8.79;50.92
77537;BME280;66665;51.656;16.106;2023-01-16T14:04:06;99426.17;;;8.78;52.11
77537;BME280;66665;51.656;16.106;2023-01-16T14:06:55;99426.98;;;8.69;52.16
77537;BME280;66665;51.656;16.106;2023-01-16T14:10:15;99422.41;;;8.60;52.17
77537;BME280;66665;51.656;16.106;2023-01-16T14:13:24;99418.43;;;8.54;52.60
77537;BME280;66665;51.656;16.106;2023-01-16T14:16:32;99421.88;;;8.45;52.66
77537;BME280;66665;51.656;16.106;2023-01-16T14:20:04;99417.18;;;8.38;52.64
77537;BME280;66665;51.656;16.106;2023-01-16T14:23:29;99409.20;;;8.26;52.58
77537;BME280;66665;51.656;16.106;2023-01-16T14:29:57;99406.45;;;8.17;53.35
77537;BME280;66665;51.656;16.106;2023-01-16T14:33:03;99403.46;;;8.10;53.39
77537;BME280;66665;51.656;16.106;2023-01-16T14:36:12;99404.09;;;8.03;53.40
77537;BME280;66665;51.656;16.106;2023-01-16T14:42:33;99386.02;;;7.95;53.98
77537;BME280;66665;51.656;16.106;2023-01-16T14:52:47;99380.53;;;7.76;54.85
77537;BME280;66665;51.656;16.106;2023-01-16T14:59:35;99374.97;;;7.68;54.91
77537;BME280;66665;51.656;16.106;2023-01-16T15:05:55;99354.76;;;7.54;55.56
77537;BME280;66665;51.656;16.106;2023-01-16T15:08:59;99347.87;;;7.52;55.51
77537;BME280;66665;51.656;16.106;2023-01-16T15:12:08;99349.21;;;7.46;55.81
77537;BME280;66665;51.656;16.106;2023-01-16T15:18:23;99342.09;;;7.35;55.90
77537;BME280;66665;51.656;16.106;2023-01-16T15:21:44;99346.36;;;7.27;56.26
77537;BME280;66665;51.656;16.106;2023-01-16T15:25:06;99346.23;;;7.17;56.60
77537;BME280;66665;51.656;16.106;2023-01-16T15:31:38;99322.98;;;7.08;56.50
77537;BME280;66665;51.656;16.106;2023-01-16T15:34:42;99332.09;;;7.06;56.57
77537;BME280;66665;51.656;16.106;2023-01-16T15:37:53;99329.79;;;7.01;57.26
77537;BME280;66665;51.656;16.106;2023-01-16T15:40:57;99329.08;;;6.99;56.75
77537;BME280;66665;51.656;16.106;2023-01-16T15:43:59;99328.70;;;6.92;56.92
77537;BME280;66665;51.656;16.106;2023-01-16T15:53:45;99324.26;;;6.71;57.25
77537;BME280;66665;51.656;16.106;2023-01-16T15:56:56;99328.48;;;6.62;57.98
77537;BME280;66665;51.656;16.106;2023-01-16T15:59:58;99318.91;;;6.60;57.49
77537;BME280;66665;51.656;16.106;2023-01-16T16:06:17;99315.04;;;6.41;59.02
77537;BME280;66665;51.656;16.106;2023-01-16T16:09:23;99314.30;;;6.39;58.10
77537;BME280;66665;51.656;16.106;2023-01-16T16:12:28;99311.99;;;6.35;58.22
77537;BME280;66665;51.656;16.106;2023-01-16T16:15:30;99297.57;;;6.26;58.09
77537;BME280;66665;51.656;16.106;2023-01-16T16:18:57;99296.86;;;6.24;58.36
77537;BME280;66665;51.656;16.106;2023-01-16T16:22:08;99295.27;;;6.22;58.50
77537;BME280;66665;51.656;16.106;2023-01-16T16:25:32;99300.23;;;6.15;59.60
77537;BME280;66665;51.656;16.106;2023-01-16T16:28:38;99293.34;;;6.13;58.24
77537;BME280;66665;51.656;16.106;2023-01-16T16:31:41;99293.09;;;6.05;58.57
77537;BME280;66665;51.656;16.106;2023-01-16T16:34:54;99289.08;;;5.99;59.79
77537;BME280;66665;51.656;16.106;2023-01-16T16:37:57;99280.59;;;5.94;58.70
77537;BME280;66665;51.656;16.106;2023-01-16T16:41:31;99281.08;;;5.88;58.96
77537;BME280;66665;51.656;16.106;2023-01-16T16:44:24;99275.09;;;5.84;60.10
77537;BME280;66665;51.656;16.106;2023-01-16T16:47:28;99272.56;;;5.83;58.72
77537;BME280;66665;51.656;16.106;2023-01-16T16:50:35;99262.38;;;5.77;59.20
77537;BME280;66665;51.656;16.106;2023-01-16T16:53:46;99254.74;;;5.72;60.29
77537;BME280;66665;51.656;16.106;2023-01-16T16:56:53;99258.39;;;5.71;59.01
77537;BME280;66665;51.656;16.106;2023-01-16T16:59:57;99260.41;;;5.68;59.45
77537;BME280;66665;51.656;16.106;2023-01-16T17:03:18;99245.90;;;5.61;60.44
77537;BME280;66665;51.656;16.106;2023-01-16T17:06:23;99245.18;;;5.58;59.19
77537;BME280;66665;51.656;16.106;2023-01-16T17:09:27;99243.48;;;5.57;59.34
77537;BME280;66665;51.656;16.106;2023-01-16T17:12:35;99239.13;;;5.56;60.13
77537;BME280;66665;51.656;16.106;2023-01-16T17:15:41;99237.66;;;5.52;59.28
77537;BME280;66665;51.656;16.106;2023-01-16T17:18:43;99231.97;;;5.46;59.85
77537;BME280;66665;51.656;16.106;2023-01-16T17:21:46;99233.77;;;5.45;59.21
77537;BME280;66665;51.656;16.106;2023-01-16T17:24:48;99219.37;;;5.37;59.59
77537;BME280;66665;51.656;16.106;2023-01-16T17:27:56;99219.10;;;5.29;60.73
77537;BME280;66665;51.656;16.106;2023-01-16T17:30:58;99215.92;;;5.24;59.65
77537;BME280;66665;51.656;16.106;2023-01-16T17:33:59;99222.53;;;5.18;60.35
77537;BME280;66665;51.656;16.106;2023-01-16T17:37:01;99214.57;;;5.18;59.75
77537;BME280;66665;51.656;16.106;2023-01-16T17:40:09;99210.58;;;5.13;60.00
77537;BME280;66665;51.656;16.106;2023-01-16T17:43:19;99202.44;;;5.03;61.26
77537;BME280;66665;51.656;16.106;2023-01-16T17:46:33;99177.70;;;4.79;60.05
77537;BME280;66665;51.656;16.106;2023-01-16T17:49:36;99206.95;;;4.90;60.35
77537;BME280;66665;51.656;16.106;2023-01-16T17:52:49;99199.45;;;4.84;61.58
77537;BME280;66665;51.656;16.106;2023-01-16T17:55:56;99189.79;;;4.83;60.77
77537;BME280;66665;51.656;16.106;2023-01-16T17:58:58;99182.16;;;4.78;61.27
77537;BME280;66665;51.656;16.106;2023-01-16T18:02:09;99186.22;;;4.71;62.56
77537;BME280;66665;51.656;16.106;2023-01-16T18:05:11;99175.94;;;4.67;61.11
77537;BME280;66665;51.656;16.106;2023-01-16T18:08:13;99167.37;;;4.63;62.11
77537;BME280;66665;51.656;16.106;2023-01-16T18:11:16;99167.79;;;4.57;61.51
77537;BME280;66665;51.656;16.106;2023-01-16T18:14:30;99160.39;;;4.49;61.67
77537;BME280;66665;51.656;16.106;2023-01-16T18:17:43;99154.70;;;4.43;62.46
77537;BME280;66665;51.656;16.106;2023-01-16T18:20:46;99145.03;;;4.42;61.44
77537;BME280;66665;51.656;16.106;2023-01-16T18:23:53;99132.10;;;4.37;62.09
77537;BME280;66665;51.656;16.106;2023-01-16T18:27:03;99132.20;;;4.36;63.67
77537;BME280;66665;51.656;16.106;2023-01-16T18:30:07;99123.28;;;4.37;61.76
77537;BME280;66665;51.656;16.106;2023-01-16T18:33:09;99120.73;;;4.35;62.11
77537;BME280;66665;51.656;16.106;2023-01-16T18:36:11;99124.14;;;4.37;61.67
77537;BME280;66665;51.656;16.106;2023-01-16T18:39:13;99122.58;;;4.35;62.16
77537;BME280;66665;51.656;16.106;2023-01-16T18:42:26;99115.56;;;4.34;63.62
77537;BME280;66665;51.656;16.106;2023-01-16T18:45:41;99111.83;;;4.36;62.23
77537;BME280;66665;51.656;16.106;2023-01-16T18:48:55;99102.30;;;4.34;62.64
77537;BME280;66665;51.656;16.106;2023-01-16T18:52:16;99091.16;;;4.29;63.99
77537;BME280;66665;51.656;16.106;2023-01-16T18:55:33;99060.91;;;4.31;64.76
77537;BME280;66665;51.656;16.106;2023-01-16T18:58:46;99057.30;;;4.32;63.02
77537;BME280;66665;51.656;16.106;2023-01-16T19:05:15;99039.21;;;4.26;64.10
77537;BME280;66665;51.656;16.106;2023-01-16T19:08:17;99029.21;;;4.30;63.25
77537;BME280;66665;51.656;16.106;2023-01-16T19:11:25;99022.73;;;4.34;63.14
77537;BME280;66665;51.656;16.106;2023-01-16T19:14:35;99018.27;;;4.34;64.46